SBGR/GRU METAR and TAF weather

Enter ICAO airport designator
Station Type Date Time Source
SBGR METAR 2024/07/24 12:00 UTC NOAA

SBGR 241200Z 07010KT CAVOK 16/10 Q1027


Station Type Date Time Source
SBGR Decoded METAR 2024/07/24 12:00 UTC NOAA

Guarulhos Civ / Mil , Brazil (SBGR) 23-26S 046-28W
Jul 24, 2024 - 08:00 AM EDT / 2024.07.24 1200 UTC
Wind: from the ENE (070 degrees) at 12 MPH (10 KT):0
Visibility: greater than 7 mile(s):0
Temperature: 60 F (16 C)
Dew Point: 50 F (10 C)
Relative Humidity: 67%
Pressure (altimeter): 30.33 in. Hg (1027 hPa)
ob: SBGR 241200Z 07010KT CAVOK 16/10 Q1027
cycle: 12

Station Type Date Time Source
SBGR TAF 2024/07/24 12:09 UTC NOAA